Nearby METAR Reports

KLWM - Lawrence,MA, USA
Distance from station: NE 12mi, 19km
Updated: Mon, 10-Dec-2018 8:54pm EST
Clear
Clear
 Wind from calm
Wind: Calm
Temperature: 27°F , -3°C
Dew Point: 10°F , -12°C
Humidity: 50%
Barometer: 30.19 inHg , 1022.4 hPa
Clouds: Clear
Visibility: 10 miles , 16 km
2018/12/11 01:54 KLWM 110154Z 00000KT 10SM CLR M03/M12 A3019 RMK AO2 SLP224 T10281122
KBED - Bedford,MA, USA
Distance from station: SSE 12mi, 19km
Updated: Mon, 10-Dec-2018 8:56pm EST
Clear
Clear
 Wind from calm
Wind: Calm
Temperature: 21°F , -6°C
Dew Point: 10°F , -12°C
Humidity: 63%
Barometer: 30.16 inHg , 1021.3 hPa
Clouds: Clear
Visibility: 10 miles , 16 km
2018/12/11 01:56 KBED 110156Z 00000KT 10SM CLR M06/M12 A3016 RMK AO2 SLP230 T10611122

Metar display script from Saratoga-Weather.org